23:16
Airports
History
Links
Donate
Help keep this website running!
PayPal
Bitcoin
Information on this page is community maintained and may be outdated or inaccurate and is intended for reference only or PC simulator navigating!
Always use approved charts for navigating.
LFNW
Puivert
Puivert (LFNW)
Puivert, Languedoc-Roussillon, France (11230)
4
Lat/Lng:42° 54' 41" N / 2° 3' 22" E
42.911388 / 2.056111
Elevation:1608'ft 490mMSL
ID / ICAO:LFNW
Runways:1
Longest:(32-14) 756.4m 2,482ft Grass
Distance To
Airport ID:
Nearby VORs <50NM
Nearby NDBs
Nearby WeatherUpdated 04-29-17 23:00 GMT
Nearby weather at LFMK, Salvaza located 24.5 nautical miles from LFNW
Altimeter: 29.83
Visibility: 6.2 statute miles
Wind: 7 knots (110°)
Temp: 12°c 54°f
Humidity: 76.5%

METAR: LFMK 292300Z AUTO 11007KT 060V160 9999 OVC018 12/08 Q1010

(Powered by phpweather)
Runway 32 / 14
Dimensions:756.4 x 100m 2482' x 328'ft
Surface:Grass
Edge Lights:Medium intensity
Runway 32 [A]Runway 14 [B]
Heading:319°TH 139°TH
Lat:
Lng:
42° 54' 31.69"N
2° 3' 32.66"E
42° 54' 50.3"N
2° 3' 11.34"E
Google Map
Nearby Airports
(C) Les Pujols 21.9 NM
LFDJ NW 304°
(C) Salvaza 24.5 NM
LFMK (WX) NNE 30°
(C) Montlouis La Quillane 25.6 NM
LFNQ S 172°
(U) Moussoulens 26.9 NM
LF12 NNE 17°
4 Castelnaudary Villeneuve 28.4 NM
LFMW NNW 346°
(C) Sainte Leocadie 32.3 NM
LFYS S 184°
(U) La Montagne Noire 34.5 NM
LFMG N 354°
VFR Chart
Flight Planning at SkyVector.com